createdAt,value
2017-11-19T00:01:40.420Z,3.20
2017-11-19T00:04:09.126Z,3.20
2017-11-19T00:06:37.841Z,3.20
2017-11-19T00:09:06.548Z,3.20
2017-11-19T00:11:36.029Z,3.20
2017-11-19T00:14:04.745Z,3.20
2017-11-19T00:16:34.300Z,3.20
2017-11-19T00:19:02.999Z,3.20
2017-11-19T00:21:31.721Z,3.20
2017-11-19T00:24:01.201Z,3.20
2017-11-19T00:26:29.921Z,3.20
2017-11-19T00:28:59.384Z,3.20
2017-11-19T00:31:27.424Z,3.10
2017-11-19T00:33:55.559Z,3.20
2017-11-19T00:36:24.275Z,3.20
2017-11-19T00:38:52.993Z,3.20
2017-11-19T00:41:21.709Z,3.20
2017-11-19T00:43:50.472Z,3.20
2017-11-19T00:46:19.309Z,3.10
2017-11-19T00:48:48.795Z,3.20
2017-11-19T00:51:17.583Z,3.10
2017-11-19T00:53:46.317Z,3.10
2017-11-19T00:56:15.215Z,3.00
2017-11-19T00:58:43.933Z,3.00
2017-11-19T01:01:12.660Z,3.00
2017-11-19T01:03:42.122Z,2.90
2017-11-19T01:06:10.905Z,2.90
2017-11-19T01:08:39.640Z,2.90
2017-11-19T01:11:09.108Z,2.70
2017-11-19T01:13:37.825Z,2.70
2017-11-19T01:16:06.510Z,2.60
2017-11-19T01:18:35.320Z,2.60
2017-11-19T01:21:04.778Z,2.50
2017-11-19T01:23:33.504Z,2.40
2017-11-19T01:26:02.200Z,2.50
2017-11-19T01:28:31.678Z,2.40
2017-11-19T01:31:01.163Z,2.40
2017-11-19T01:33:29.861Z,2.40
2017-11-19T01:35:58.309Z,2.40
2017-11-19T01:38:26.999Z,2.40
2017-11-19T01:40:55.708Z,2.30
2017-11-19T01:43:24.424Z,2.40
2017-11-19T01:45:53.157Z,2.40
2017-11-19T01:48:21.853Z,2.40
2017-11-19T01:50:50.608Z,2.40
2017-11-19T01:53:20.151Z,2.50
2017-11-19T01:55:48.917Z,2.40
2017-11-19T01:58:17.632Z,2.50
2017-11-19T02:00:46.453Z,2.50
2017-11-19T02:03:15.161Z,2.50
2017-11-19T02:05:44.632Z,2.50
2017-11-19T02:08:13.344Z,2.40
2017-11-19T02:10:42.040Z,2.50
2017-11-19T02:13:12.025Z,2.60
2017-11-19T02:15:40.773Z,2.50
2017-11-19T02:18:09.488Z,2.60
2017-11-19T02:20:38.216Z,2.60
2017-11-19T02:23:06.914Z,2.60
2017-11-19T02:25:36.409Z,2.60
2017-11-19T02:28:05.146Z,2.50
2017-11-19T02:30:34.053Z,2.60
2017-11-19T02:33:02.749Z,2.70
2017-11-19T02:35:31.456Z,2.70
2017-11-19T02:38:00.345Z,2.80
2017-11-19T02:40:29.075Z,2.70
2017-11-19T02:42:58.753Z,2.70
2017-11-19T02:45:27.456Z,2.60
2017-11-19T02:47:56.967Z,2.70
2017-11-19T02:50:25.767Z,2.70
2017-11-19T02:52:55.269Z,2.80
2017-11-19T02:55:24.728Z,2.80
2017-11-19T02:57:53.447Z,2.80
2017-11-19T03:00:22.958Z,2.80
2017-11-19T03:02:52.417Z,2.80
2017-11-19T03:05:21.125Z,2.70
2017-11-19T03:07:49.824Z,2.80
2017-11-19T03:10:18.559Z,2.70
2017-11-19T03:12:47.279Z,2.60
2017-11-19T03:15:16.172Z,2.60
2017-11-19T03:17:44.860Z,2.60
2017-11-19T03:20:13.593Z,2.60
2017-11-19T03:22:43.100Z,2.60
2017-11-19T03:25:12.416Z,2.60
2017-11-19T03:27:41.136Z,2.50
2017-11-19T03:30:09.886Z,2.50
2017-11-19T03:32:39.345Z,2.60
2017-11-19T03:35:08.028Z,2.50
2017-11-19T03:37:36.741Z,2.60
2017-11-19T03:40:06.278Z,2.60
2017-11-19T03:42:35.731Z,2.50
2017-11-19T03:45:04.096Z,2.40
2017-11-19T03:47:32.792Z,2.40
2017-11-19T03:50:01.501Z,2.30
2017-11-19T03:52:30.218Z,2.20
2017-11-19T03:54:59.785Z,2.10
2017-11-19T03:57:28.496Z,2.20
2017-11-19T03:59:57.189Z,2.10
2017-11-19T04:02:26.681Z,2.10
2017-11-19T04:04:55.378Z,2.10
2017-11-19T04:07:24.091Z,2.20
2017-11-19T04:09:52.852Z,2.20
2017-11-19T04:12:21.223Z,2.20
2017-11-19T04:14:49.935Z,2.20
2017-11-19T04:17:19.380Z,2.20
2017-11-19T04:19:48.276Z,2.10
2017-11-19T04:22:17.016Z,2.20
2017-11-19T04:24:45.717Z,2.30
2017-11-19T04:27:14.576Z,2.20
2017-11-19T04:29:43.263Z,2.20
2017-11-19T04:32:11.976Z,2.20
2017-11-19T04:34:41.417Z,2.20
2017-11-19T04:37:10.148Z,2.20
2017-11-19T04:39:39.165Z,2.20
2017-11-19T04:42:08.125Z,2.20
2017-11-19T04:44:36.800Z,2.30
2017-11-19T04:47:05.540Z,2.20
2017-11-19T04:49:35.025Z,2.10
2017-11-19T04:52:03.732Z,2.00
2017-11-19T04:54:33.213Z,2.10
2017-11-19T04:57:01.902Z,2.00
2017-11-19T04:59:30.622Z,2.00
2017-11-19T05:01:59.324Z,2.00
2017-11-19T05:04:28.033Z,2.00
2017-11-19T05:06:56.732Z,1.90
2017-11-19T05:09:25.428Z,2.00
2017-11-19T05:11:54.123Z,2.00
2017-11-19T05:14:22.841Z,1.90
2017-11-19T05:16:52.501Z,1.90
2017-11-19T05:19:21.209Z,1.90
2017-11-19T05:21:49.921Z,1.90
2017-11-19T05:24:19.410Z,1.80
2017-11-19T05:26:48.124Z,1.80
2017-11-19T05:29:17.586Z,1.80
2017-11-19T05:31:46.284Z,1.70
2017-11-19T05:34:16.497Z,1.70
2017-11-19T05:36:45.189Z,1.70
2017-11-19T05:39:13.889Z,1.60
2017-11-19T05:41:42.597Z,1.60
2017-11-19T05:44:12.069Z,1.60
2017-11-19T05:46:40.752Z,1.60
2017-11-19T05:49:09.686Z,1.60
2017-11-19T05:51:39.144Z,1.50
2017-11-19T05:54:07.840Z,1.50
2017-11-19T05:56:36.524Z,1.60
2017-11-19T05:59:05.232Z,1.60
2017-11-19T06:01:34.697Z,1.80
2017-11-19T06:04:03.413Z,1.80
2017-11-19T06:06:32.124Z,1.90
2017-11-19T06:09:01.729Z,1.90
2017-11-19T06:11:30.435Z,1.90
2017-11-19T06:13:59.916Z,2.00
2017-11-19T06:16:28.620Z,1.90
2017-11-19T06:18:58.095Z,2.00
2017-11-19T06:21:26.821Z,2.00
2017-11-19T06:23:56.285Z,2.20
2017-11-19T06:26:25.001Z,2.10
2017-11-19T06:28:54.464Z,2.20
2017-11-19T06:31:23.565Z,2.20
2017-11-19T06:33:52.261Z,2.20
2017-11-19T06:36:20.971Z,2.20
2017-11-19T06:38:49.673Z,2.30
2017-11-19T06:41:19.145Z,2.50
2017-11-19T06:43:47.838Z,2.40
2017-11-19T06:46:16.551Z,2.50
2017-11-19T06:48:46.012Z,2.60
2017-11-19T06:51:14.245Z,2.60
2017-11-19T06:53:43.845Z,2.70
2017-11-19T06:56:13.324Z,2.80
2017-11-19T06:58:42.036Z,2.70
2017-11-19T07:01:11.501Z,2.80
2017-11-19T07:03:40.213Z,2.80
2017-11-19T07:06:08.914Z,2.90
2017-11-19T07:08:38.400Z,3.10
2017-11-19T07:11:07.112Z,3.00
2017-11-19T07:13:36.598Z,3.20
2017-11-19T07:16:05.292Z,3.20
2017-11-19T07:18:34.006Z,3.30
2017-11-19T07:21:02.712Z,3.40
2017-11-19T07:23:31.432Z,2.70
2017-11-19T07:26:00.132Z,2.20
2017-11-19T07:28:28.677Z,2.30
2017-11-19T07:30:57.021Z,2.30
2017-11-19T07:33:25.830Z,2.40
2017-11-19T07:35:54.549Z,2.50
2017-11-19T07:38:23.340Z,2.50
2017-11-19T07:40:51.701Z,2.60
2017-11-19T07:43:20.077Z,2.60
2017-11-19T07:45:48.768Z,2.60
2017-11-19T07:48:17.632Z,2.60
2017-11-19T07:50:46.471Z,2.60
2017-11-19T07:53:15.052Z,2.50
2017-11-19T07:55:43.743Z,2.60
2017-11-19T07:58:12.465Z,2.60
2017-11-19T08:00:40.973Z,2.60
2017-11-19T08:03:09.492Z,2.60
2017-11-19T08:05:37.530Z,2.60
2017-11-19T08:08:06.408Z,2.70
2017-11-19T08:10:35.524Z,2.90
2017-11-19T08:13:03.892Z,2.90
2017-11-19T08:15:33.560Z,3.30
2017-11-19T08:18:02.286Z,3.20
2017-11-19T08:20:31.275Z,3.50
2017-11-19T08:23:00.746Z,3.40
2017-11-19T08:25:29.473Z,3.40
2017-11-19T08:27:58.390Z,3.50
2017-11-19T08:30:27.107Z,3.40
2017-11-19T08:32:55.811Z,3.20
2017-11-19T08:35:24.529Z,3.00
2017-11-19T08:37:53.993Z,2.80
2017-11-19T08:40:22.713Z,2.80
2017-11-19T08:42:51.404Z,2.80
2017-11-19T08:45:20.342Z,2.70
2017-11-19T08:47:49.077Z,2.70
2017-11-19T08:50:17.806Z,2.60
2017-11-19T08:52:46.508Z,2.60
2017-11-19T08:55:15.214Z,2.70
2017-11-19T08:57:44.132Z,2.80
2017-11-19T09:00:13.620Z,2.90
2017-11-19T09:02:42.338Z,2.90
2017-11-19T09:05:11.812Z,3.00
2017-11-19T09:07:40.201Z,2.90
2017-11-19T09:10:08.976Z,3.00
2017-11-19T09:12:37.780Z,2.90
2017-11-19T09:15:06.473Z,3.10
2017-11-19T09:17:35.397Z,3.10
2017-11-19T09:20:04.095Z,3.20
2017-11-19T09:22:33.398Z,3.10
2017-11-19T09:25:02.141Z,3.10
2017-11-19T09:27:30.844Z,3.20
2017-11-19T09:30:00.327Z,3.10
2017-11-19T09:32:29.032Z,3.10
2017-11-19T09:34:57.749Z,3.20
2017-11-19T09:37:26.450Z,3.20
2017-11-19T09:39:55.253Z,3.20
2017-11-19T09:42:24.000Z,3.20
2017-11-19T09:44:53.612Z,3.20
2017-11-19T09:47:23.093Z,3.20
2017-11-19T09:49:51.813Z,3.20
2017-11-19T09:52:20.544Z,3.30
2017-11-19T09:54:48.926Z,3.20
2017-11-19T09:57:17.664Z,3.30
2017-11-19T09:59:46.370Z,3.30
2017-11-19T10:02:15.197Z,3.30
2017-11-19T10:04:44.246Z,3.30
2017-11-19T10:07:12.973Z,3.40
2017-11-19T10:09:41.692Z,3.50
2017-11-19T10:12:10.401Z,3.60
2017-11-19T10:14:39.906Z,3.60
2017-11-19T10:17:09.428Z,3.70
2017-11-19T10:19:38.166Z,3.60
2017-11-19T10:22:07.352Z,3.70
2017-11-19T10:24:36.055Z,3.60
2017-11-19T10:27:04.778Z,3.90
2017-11-19T10:29:34.320Z,3.90
2017-11-19T10:32:02.787Z,3.90
2017-11-19T10:34:31.233Z,4.00
2017-11-19T10:36:59.766Z,4.10
2017-11-19T10:39:28.468Z,4.40
2017-11-19T10:41:57.701Z,4.50
2017-11-19T10:44:26.152Z,4.50
2017-11-19T10:46:55.380Z,4.80
2017-11-19T10:49:23.815Z,4.80
2017-11-19T10:51:52.273Z,4.80
2017-11-19T10:54:20.747Z,4.90
2017-11-19T10:56:49.363Z,4.90
2017-11-19T10:59:17.831Z,5.10
2017-11-19T11:01:46.285Z,5.00
2017-11-19T11:04:14.733Z,4.90
2017-11-19T11:06:43.928Z,4.60
2017-11-19T11:09:12.385Z,4.60
2017-11-19T11:11:40.823Z,4.70
2017-11-19T11:14:09.144Z,4.80
2017-11-19T11:16:37.584Z,5.00
2017-11-19T11:19:06.038Z,4.90
2017-11-19T11:21:35.333Z,4.70
2017-11-19T11:24:03.617Z,4.70
2017-11-19T11:26:32.834Z,4.80
2017-11-19T11:29:02.061Z,4.80
2017-11-19T11:31:30.495Z,4.70
2017-11-19T11:33:59.870Z,4.60
2017-11-19T11:36:28.334Z,4.60
2017-11-19T11:38:56.790Z,4.70
2017-11-19T11:41:25.228Z,4.70
2017-11-19T11:43:55.188Z,4.80
2017-11-19T11:46:23.630Z,4.80
2017-11-19T11:48:52.864Z,5.00
2017-11-19T11:51:21.311Z,4.90
2017-11-19T11:53:49.761Z,4.90
2017-11-19T11:56:18.213Z,4.90
2017-11-19T11:58:46.671Z,4.80
2017-11-19T12:01:15.886Z,4.80
2017-11-19T12:03:45.198Z,4.80
2017-11-19T12:06:13.715Z,4.80
2017-11-19T12:08:42.165Z,4.70
2017-11-19T12:11:10.646Z,4.70
2017-11-19T12:13:39.254Z,4.80
2017-11-19T12:16:07.948Z,5.00
2017-11-19T12:18:36.472Z,5.40
2017-11-19T12:21:04.925Z,5.60
2017-11-19T12:23:33.384Z,5.50
2017-11-19T12:26:01.827Z,5.70
2017-11-19T12:28:30.720Z,5.80
2017-11-19T12:30:59.273Z,5.50
2017-11-19T12:33:27.752Z,5.40
2017-11-19T12:35:56.204Z,5.30
2017-11-19T12:38:24.645Z,5.30
2017-11-19T12:40:55.169Z,5.30
2017-11-19T12:43:24.397Z,5.30
2017-11-19T12:45:52.829Z,5.20
2017-11-19T12:48:21.349Z,5.30
2017-11-19T12:50:50.570Z,5.20
2017-11-19T12:53:19.213Z,5.20
2017-11-19T12:55:47.788Z,5.10
2017-11-19T12:58:16.242Z,5.10
2017-11-19T13:00:44.360Z,5.10
2017-11-19T13:03:13.052Z,5.20
2017-11-19T13:05:41.673Z,5.20
2017-11-19T13:08:10.129Z,5.20
2017-11-19T13:10:39.521Z,5.20
2017-11-19T13:13:07.970Z,5.20
2017-11-19T13:15:35.767Z,5.30
2017-11-19T13:18:04.316Z,5.50
2017-11-19T13:20:32.769Z,5.50
2017-11-19T13:23:01.231Z,5.60
2017-11-19T13:25:30.475Z,5.80
2017-11-19T13:27:59.072Z,5.70
2017-11-19T13:30:27.654Z,5.60
2017-11-19T13:32:56.215Z,5.60
2017-11-19T13:35:24.829Z,5.50
2017-11-19T13:37:54.053Z,5.30
2017-11-19T13:40:22.511Z,5.30
2017-11-19T13:42:50.972Z,5.40
2017-11-19T13:45:20.439Z,5.40
2017-11-19T13:47:49.666Z,5.40
2017-11-19T13:50:18.105Z,5.40
2017-11-19T13:52:46.537Z,5.40
2017-11-19T13:55:14.986Z,5.50
2017-11-19T13:57:44.188Z,5.40
2017-11-19T14:00:13.399Z,5.40
2017-11-19T14:02:42.806Z,5.40
2017-11-19T14:05:11.255Z,5.30
2017-11-19T14:07:40.514Z,5.60
2017-11-19T14:10:08.966Z,5.50
2017-11-19T14:12:37.401Z,5.60
2017-11-19T14:15:05.847Z,5.60
2017-11-19T14:17:34.445Z,5.50
2017-11-19T14:20:03.295Z,5.50
2017-11-19T14:22:32.497Z,5.40
2017-11-19T14:25:00.938Z,5.40
2017-11-19T14:27:29.658Z,5.40
2017-11-19T14:29:59.068Z,5.40
2017-11-19T14:32:27.534Z,5.40
2017-11-19T14:34:56.786Z,5.30
2017-11-19T14:37:25.242Z,5.30
2017-11-19T14:39:54.061Z,5.30
2017-11-19T14:42:22.541Z,5.30
2017-11-19T14:44:50.996Z,5.30
2017-11-19T14:47:19.495Z,5.20
2017-11-19T14:49:48.997Z,5.10
2017-11-19T14:52:17.649Z,5.00
2017-11-19T14:54:46.366Z,5.00
2017-11-19T14:57:14.817Z,5.00
2017-11-19T14:59:44.034Z,4.90
2017-11-19T15:02:12.544Z,4.80
2017-11-19T15:04:41.033Z,4.90
2017-11-19T15:07:09.560Z,4.80
2017-11-19T15:09:38.012Z,4.70
2017-11-19T15:12:06.612Z,4.80
2017-11-19T15:14:35.169Z,4.70
2017-11-19T15:17:03.609Z,4.60
2017-11-19T15:19:32.844Z,4.70
2017-11-19T15:22:01.274Z,4.60
2017-11-19T15:24:29.738Z,4.70
2017-11-19T15:26:58.173Z,4.60
2017-11-19T15:29:26.625Z,4.60
2017-11-19T15:31:55.048Z,4.60
2017-11-19T15:34:23.501Z,4.50
2017-11-19T15:36:52.747Z,4.30
2017-11-19T15:39:21.360Z,4.30
2017-11-19T15:41:49.784Z,4.20
2017-11-19T15:44:18.362Z,4.20
2017-11-19T15:46:46.805Z,4.20
2017-11-19T15:49:15.253Z,4.20
2017-11-19T15:51:43.720Z,4.20
2017-11-19T15:54:12.190Z,4.10
2017-11-19T15:56:40.687Z,4.10
2017-11-19T15:59:09.125Z,4.00
2017-11-19T16:01:38.585Z,4.00
2017-11-19T16:04:07.025Z,3.90
2017-11-19T16:06:36.246Z,3.80
2017-11-19T16:09:04.088Z,3.80
2017-11-19T16:11:32.813Z,3.80
2017-11-19T16:14:01.288Z,3.60
2017-11-19T16:16:29.790Z,3.50
2017-11-19T16:18:59.054Z,3.40
2017-11-19T16:21:27.936Z,3.30
2017-11-19T16:23:56.662Z,3.40
2017-11-19T16:26:25.129Z,3.40
2017-11-19T16:28:53.942Z,3.30
2017-11-19T16:31:23.454Z,3.20
2017-11-19T16:33:51.929Z,3.10
2017-11-19T16:36:21.394Z,3.10
2017-11-19T16:38:50.131Z,3.10
2017-11-19T16:41:18.841Z,3.10
2017-11-19T16:43:47.761Z,3.10
2017-11-19T16:46:16.473Z,3.10
2017-11-19T16:48:44.916Z,3.00
2017-11-19T16:51:13.637Z,3.00
2017-11-19T16:53:42.074Z,3.00
2017-11-19T16:56:10.810Z,3.00
2017-11-19T16:58:39.257Z,3.00
2017-11-19T17:01:08.502Z,2.90
2017-11-19T17:03:38.002Z,2.80
2017-11-19T17:06:06.932Z,2.80
2017-11-19T17:08:35.657Z,2.90
2017-11-19T17:11:04.373Z,2.80
2017-11-19T17:13:33.860Z,2.70
2017-11-19T17:16:02.577Z,2.70
2017-11-19T17:18:32.050Z,2.80
2017-11-19T17:21:00.857Z,2.70
2017-11-19T17:23:29.579Z,2.80
2017-11-19T17:25:58.361Z,2.80
2017-11-19T17:28:27.328Z,2.70
2017-11-19T17:30:56.044Z,2.60
2017-11-19T17:33:25.548Z,2.70
2017-11-19T17:35:59.850Z,2.60
2017-11-19T17:38:28.588Z,2.70
2017-11-19T17:40:57.300Z,2.60
2017-11-19T17:43:26.052Z,2.50
2017-11-19T17:45:54.768Z,2.50
2017-11-19T17:48:23.499Z,2.50
2017-11-19T17:50:52.976Z,2.60
2017-11-19T17:53:21.739Z,2.50
2017-11-19T17:55:51.312Z,2.60
2017-11-19T17:58:20.899Z,2.50
2017-11-19T18:00:49.761Z,2.50
2017-11-19T18:03:18.545Z,2.50
2017-11-19T18:05:47.277Z,2.50
2017-11-19T18:08:16.748Z,2.60
2017-11-19T18:10:45.498Z,2.50
2017-11-19T18:13:14.229Z,2.50
2017-11-19T18:15:43.072Z,2.50
2017-11-19T18:18:11.816Z,2.50
2017-11-19T18:20:40.220Z,2.50
2017-11-19T18:23:09.766Z,2.50
2017-11-19T18:25:38.723Z,2.40
2017-11-19T18:28:08.244Z,2.30
2017-11-19T18:30:36.992Z,2.20
2017-11-19T18:33:05.725Z,2.20
2017-11-19T18:35:34.438Z,2.30
2017-11-19T18:38:03.129Z,2.40
2017-11-19T18:40:31.869Z,2.30
2017-11-19T18:43:01.338Z,2.10
2017-11-19T18:45:30.053Z,2.10
2017-11-19T18:47:58.772Z,2.20
2017-11-19T18:50:27.503Z,2.20
2017-11-19T18:52:56.244Z,2.20
2017-11-19T18:55:24.969Z,2.30
2017-11-19T18:57:53.685Z,2.20
2017-11-19T19:00:22.414Z,2.10
2017-11-19T19:02:51.126Z,2.00
2017-11-19T19:05:19.883Z,2.00
2017-11-19T19:07:48.625Z,2.00
2017-11-19T19:10:17.363Z,2.20
2017-11-19T19:12:46.155Z,2.20
2017-11-19T19:15:14.873Z,2.20
2017-11-19T19:17:43.615Z,2.20
2017-11-19T19:20:12.370Z,2.30
2017-11-19T19:22:41.122Z,2.40
2017-11-19T19:25:09.880Z,2.50
2017-11-19T19:27:39.360Z,2.50
2017-11-19T19:30:08.081Z,2.50
2017-11-19T19:32:37.588Z,2.60
2017-11-19T19:35:06.327Z,2.50
2017-11-19T19:37:35.055Z,2.50
2017-11-19T19:40:04.565Z,2.40
2017-11-19T19:42:34.936Z,2.40
2017-11-19T19:45:03.664Z,2.40
2017-11-19T19:47:32.417Z,2.50
2017-11-19T19:50:01.142Z,2.50
2017-11-19T19:52:29.958Z,2.60
2017-11-19T19:54:58.670Z,2.70
2017-11-19T19:57:27.442Z,2.80
2017-11-19T19:59:57.283Z,2.80
2017-11-19T20:02:25.730Z,2.70
2017-11-19T20:04:54.507Z,2.80
2017-11-19T20:07:24.005Z,2.90
2017-11-19T20:09:52.583Z,2.90
2017-11-19T20:12:21.303Z,2.90
2017-11-19T20:14:51.023Z,2.90
2017-11-19T20:17:19.821Z,2.90
2017-11-19T20:19:48.553Z,2.90
2017-11-19T20:22:17.307Z,3.00
2017-11-19T20:24:45.721Z,3.00
2017-11-19T20:27:14.477Z,3.10
2017-11-19T20:29:43.965Z,3.00
2017-11-19T20:32:12.771Z,2.90
2017-11-19T20:34:41.522Z,3.00
2017-11-19T20:37:10.003Z,3.00
2017-11-19T20:39:39.504Z,3.00
2017-11-19T20:42:08.007Z,2.90
2017-11-19T20:44:36.738Z,2.90
2017-11-19T20:47:05.485Z,3.00
2017-11-19T20:49:34.208Z,3.00
2017-11-19T20:52:02.909Z,3.10
2017-11-19T20:54:31.645Z,3.10
2017-11-19T20:57:00.373Z,3.20
2017-11-19T20:59:29.301Z,3.20
2017-11-19T21:01:58.107Z,3.20
2017-11-19T21:04:27.621Z,3.20
2017-11-19T21:06:57.111Z,3.20
2017-11-19T21:09:25.882Z,3.20
2017-11-19T21:11:55.296Z,3.20
2017-11-19T21:14:24.026Z,3.20
2017-11-19T21:16:52.603Z,3.20
2017-11-19T21:19:21.400Z,3.20
2017-11-19T21:21:49.858Z,3.20
2017-11-19T21:24:18.370Z,3.30
2017-11-19T21:26:46.829Z,3.30
2017-11-19T21:29:15.060Z,3.30
2017-11-19T21:31:44.432Z,3.30
2017-11-19T21:34:12.951Z,3.30
2017-11-19T21:36:42.200Z,3.30
2017-11-19T21:39:10.928Z,3.30
2017-11-19T21:41:39.357Z,3.30
2017-11-19T21:44:09.128Z,3.30
2017-11-19T21:46:37.911Z,3.20
2017-11-19T21:49:06.622Z,3.30
2017-11-19T21:51:35.353Z,3.40
2017-11-19T21:54:04.091Z,3.30
2017-11-19T21:56:32.807Z,3.30
2017-11-19T21:59:01.272Z,3.30
2017-11-19T22:01:30.005Z,3.30
2017-11-19T22:03:58.732Z,3.30
2017-11-19T22:06:27.444Z,3.30
2017-11-19T22:08:56.200Z,3.30
2017-11-19T22:11:25.412Z,3.20
2017-11-19T22:13:54.157Z,3.20
2017-11-19T22:16:22.861Z,3.20
2017-11-19T22:18:51.313Z,3.10
2017-11-19T22:21:19.765Z,3.10
2017-11-19T22:23:48.225Z,3.00
2017-11-19T22:26:17.437Z,3.10
2017-11-19T22:28:46.141Z,3.00
2017-11-19T22:31:14.972Z,3.10
2017-11-19T22:33:43.687Z,3.20
2017-11-19T22:36:12.925Z,3.20
2017-11-19T22:38:41.357Z,3.10
2017-11-19T22:41:10.079Z,3.20
2017-11-19T22:43:38.808Z,3.20
2017-11-19T22:46:07.528Z,3.30
2017-11-19T22:48:36.236Z,3.30
2017-11-19T22:51:04.961Z,3.30
2017-11-19T22:53:33.424Z,3.30
2017-11-19T22:56:02.132Z,3.20
2017-11-19T22:58:31.616Z,3.30
2017-11-19T23:01:01.085Z,3.30
2017-11-19T23:03:29.807Z,3.20
2017-11-19T23:05:58.520Z,3.30
2017-11-19T23:08:28.018Z,3.30
2017-11-19T23:10:57.513Z,3.40
2017-11-19T23:13:26.222Z,3.30
2017-11-19T23:15:55.118Z,3.30
2017-11-19T23:18:23.825Z,3.40
2017-11-19T23:20:52.548Z,3.50
2017-11-19T23:23:21.255Z,3.50
2017-11-19T23:25:50.744Z,3.60
2017-11-19T23:28:19.444Z,3.50
2017-11-19T23:30:48.160Z,3.50
2017-11-19T23:33:17.652Z,3.50
2017-11-19T23:35:46.888Z,3.50
2017-11-19T23:38:15.593Z,3.40
2017-11-19T23:40:44.332Z,3.50
2017-11-19T23:43:13.805Z,3.50
2017-11-19T23:45:42.519Z,3.40
2017-11-19T23:48:11.991Z,3.50
2017-11-19T23:50:40.708Z,3.40
2017-11-19T23:53:09.453Z,3.40
2017-11-19T23:55:38.184Z,3.40
2017-11-19T23:58:06.897Z,3.40
